• Join FlightAware (Why Join?)
  • Login
  • US Flag 
09:31AM EST


 

Airport Tracker/Info


-or-


 

Live Flight TrackerFlight Track Log ✈ N498QS ✈ 28-Apr-2013 ✈ KBUF - KBCT

Flight Track Log - Related Links

Times and Time Zones

All times are in EDT time to prevent confusion due to time zone crossing. See the N498QS flight status page for this flight to view local times or setup timezone preferences in your user account.

Time Position Orientation Groundspeed Altitude Reporting Facility
EDT Latitude Longitude Course Direction KTS MPH feet Rate Location/Type
02:59PM 42.9333 -78.7167 179° South 156 180 1,700  Level Buffalo TRACON
03:01PM 42.8119 -78.7125 179° South 265 305 8,700 3,240 Climbing Cleveland Center
03:02PM 42.7542 -78.7539 208° Southwest 257 296 12,500 3,120 Climbing Cleveland Center
03:03PM 42.6861 -78.7981 206° Southwest 257 296 15,000 3,060 Climbing Cleveland Center
03:05PM 42.5189 -78.9069 206° Southwest 318 366 21,800 3,000 Climbing Cleveland Center
03:06PM 42.4425 -78.9569 206° Southwest 331 381 24,100 1,560 Climbing Cleveland Center
03:07PM 42.3494 -79.0183 206° Southwest 354 407 25,000 1,140 Climbing Cleveland Center
03:08PM 42.2567 -79.0767 205° Southwest 370 426 26,400 1,680 Climbing Cleveland Center
03:09PM 42.1528 -79.1211 198° South 381 438 28,400 1,800 Climbing Cleveland Center
03:10PM 42.0447 -79.1489 191° South 391 450 30,000 1,740 Climbing Cleveland Center
03:11PM 41.9411 -79.1986 200° South 396 456 31,900 2,040 Climbing Cleveland Center
03:12PM 41.8547 -79.2786 215° Southwest 385 443 34,100 2,160 Climbing Cleveland Center
03:13PM 41.7658 -79.3611 215° Southwest 385 443 36,300 1,740 Climbing Cleveland Center
03:14PM 41.6792 -79.4433 215° Southwest 385 443 37,600 840 Climbing Cleveland Center
03:15PM 41.5861 -79.5283 214° Southwest 398 458 38,000 180 Climbing Cleveland Center
03:16PM 41.4953 -79.6128 215° Southwest 398 458 38,000 900 Level Cleveland Center
03:17PM 41.3917 -79.7058 214° Southwest 403 464 39,800 1,560 Climbing Cleveland Center
03:18PM 41.2922 -79.7706 206° Southwest 403 464 41,200 1,200 Climbing Cleveland Center
03:19PM 41.1797 -79.7914 188° South 403 464 42,300 840 Climbing Cleveland Center
03:20PM 41.0756 -79.8036 185° South 408 470 42,900 180 Climbing Cleveland Center
03:22PM 40.8319 -79.8394 186° South 439 505 43,000  Climbing Cleveland Center
03:23PM 40.7047 -79.8547 185° South 458 527 43,000  Level Cleveland Center
03:24PM 40.5758 -79.8750 187° South 463 533 43,000  Level Cleveland Center
03:25PM 40.4508 -79.8900 185° South 463 533 43,000  Level Cleveland Center
03:26PM 40.3111 -79.9106 186° South 463 533 43,000  Level Cleveland Center
03:27PM 40.1861 -79.9281 186° South 463 533 43,000  Level Cleveland Center
03:28PM 40.0653 -79.9456 186° South 458 527 43,000  Level Cleveland Center
03:29PM 39.9383 -79.9631 186° South 458 527 43,000  Level Cleveland Center
03:30PM 39.8175 -79.9803 186° South 458 527 43,000  Level Cleveland Center
03:31PM 39.6906 -79.9978 186° South 458 527 43,000  Level Cleveland Center
03:32PM 39.5633 -80.0150 186° South 458 527 43,000  Level Cleveland Center
03:33PM 39.4883 -80.0261 187° South 458 527 43,000  Level Washington Center
03:34PM 39.3625 -80.0450 187° South 439 505 43,000  Level Washington Center
03:35PM 39.2389 -80.0617 186° South 444 511 43,000  Level Washington Center
03:36PM 39.1133 -80.0753 185° South 450 518 43,000  Level Washington Center
03:37PM 38.9981 -80.0950 188° South 450 518 43,000  Level Washington Center
03:38PM 38.8617 -80.1133 186° South 461 531 43,000  Level Washington Center
03:39PM 38.7411 -80.1564 196° South 461 531 43,000  Level Washington Center
03:40PM 38.6167 -80.1967 194° South 461 531 43,000 300 Level Washington Center
03:41PM 38.4983 -80.2397 196° South 461 531 43,600 660 Climbing Washington Center
03:42PM 38.3903 -80.2833 198° South 456 525 44,400 600 Climbing Washington Center
03:43PM 38.2736 -80.3314 198° South 450 518 44,900 300 Climbing Washington Center
03:44PM 38.1547 -80.3847 199° South 450 518 45,000  Climbing Washington Center
03:45PM 38.0231 -80.4394 198° South 455 524 45,000  Level Washington Center
03:46PM 37.9042 -80.4897 198° South 455 524 45,000  Level Washington Center
03:47PM 37.7856 -80.5372 198° South 455 524 45,000  Level Washington Center
03:49PM 37.5189 -80.6508 199° South 440 506 45,000  Level Atlanta Center
03:50PM 37.4036 -80.6950 197° South 440 506 45,000  Level Atlanta Center
03:51PM 37.3025 -80.7383 199° South 440 506 45,000  Level Atlanta Center
03:52PM 37.1850 -80.7850 198° South 435 501 45,000  Level Atlanta Center
03:53PM 37.0717 -80.8339 199° South 435 501 45,000  Level Atlanta Center
03:54PM 36.9561 -80.8803 198° South 435 501 45,000  Level Atlanta Center
03:55PM 36.8281 -80.9319 198° South 440 506 45,000  Level Atlanta Center
03:56PM 36.7289 -80.9694 197° South 427 491 45,000  Level Atlanta Center
03:57PM 36.6111 -81.0156 197° South 437 503 45,000  Level Atlanta Center
03:58PM 36.4958 -81.0664 200° South 437 503 45,000  Level Atlanta Center
03:59PM 36.3678 -81.1200 199° South 444 511 45,000  Level Atlanta Center
04:00PM 36.2500 -81.1681 198° South 439 505 45,000  Level Atlanta Center
04:01PM 36.1322 -81.2133 197° South 439 505 45,000  Level Atlanta Center
04:02PM 36.0144 -81.2611 198° South 439 505 45,000  Level Atlanta Center
04:03PM 35.8914 -81.2731 184° South 439 505 45,000  Level Atlanta Center
04:04PM 35.7664 -81.2797 182° South 444 511 45,000  Level Atlanta Center
04:05PM 35.6561 -81.2861 183° South 444 511 45,000  Level Atlanta Center
04:06PM 35.5331 -81.2878 181° South 444 511 45,000  Level Atlanta Center
04:07PM 35.3936 -81.2975 183° South 453 521 45,000  Level Atlanta Center
04:08PM 35.2706 -81.3042 183° South 453 521 45,000  Level Atlanta Center
04:12PM 34.7947 -81.3253 182° South 439 505 45,000  Level Jacksonville Center
04:13PM 34.6697 -81.3325 183° South 451 519 45,000  Level Jacksonville Center
04:14PM 34.5422 -81.3247 177° South 456 525 45,000  Level Jacksonville Center
04:15PM 34.4169 -81.3169 177° South 456 525 45,000  Level Jacksonville Center
04:16PM 34.3022 -81.3164 180° South 461 531 45,000  Level Jacksonville Center
04:17PM 34.1583 -81.3067 177° South 454 522 45,000  Level Jacksonville Center
04:18PM 34.0289 -81.3014 178° South 454 522 45,000  Level Jacksonville Center
04:19PM 33.9014 -81.2936 177° South 460 529 45,000  Level Jacksonville Center
04:20PM 33.7742 -81.2886 178° South 460 529 45,000  Level Jacksonville Center
04:21PM 33.6447 -81.2858 179° South 460 529 45,000  Level Jacksonville Center
04:22PM 33.5153 -81.2808 178° South 460 529 45,000  Level Jacksonville Center
04:23PM 33.3878 -81.2756 178° South 465 535 45,000  Level Jacksonville Center
04:24PM 33.2333 -81.2686 178° South 465 535 45,000  Level Jacksonville Center
04:25PM 33.1058 -81.2658 179° South 459 528 45,000  Level Jacksonville Center
04:26PM 32.9889 -81.2606 178° South 470 541 45,000  Level Jacksonville Center
04:27PM 32.8617 -81.2556 178° South 470 541 45,000  Level Jacksonville Center
04:28PM 32.7300 -81.2478 177° South 470 541 45,000  Level Jacksonville Center
04:29PM 32.5900 -81.2456 179° South 461 531 45,000  Level Jacksonville Center
04:30PM 32.4753 -81.2428 179° South 461 531 45,000  Level Jacksonville Center
04:31PM 32.3394 -81.2328 176° South 474 545 45,000  Level Jacksonville Center
04:32PM 32.2100 -81.2303 179° South 474 545 45,000  Level Jacksonville Center
04:33PM 32.0803 -81.2203 176° South 474 545 45,000  Level Jacksonville Center
04:34PM 31.9464 -81.1983 172° South 479 551 45,000  Level Jacksonville Center
04:35PM 31.8167 -81.1764 172° South 484 557 45,000  Level Jacksonville Center
04:36PM 31.6703 -81.1522 172° South 484 557 45,000  Level Jacksonville Center
04:37PM 31.5508 -81.1325 172° South 484 557 45,000  Level Jacksonville Center
04:38PM 31.4044 -81.1108 173° South 484 557 45,000  Level Jacksonville Center
04:39PM 31.2853 -81.0889 171° South 484 557 45,000  Level Jacksonville Center
04:40PM 31.1514 -81.0694 173° South 484 557 45,000  Level Jacksonville Center
04:41PM 31.0194 -81.0478 172° South 484 557 45,000  Level Jacksonville Center
04:42PM 30.8875 -81.0261 172° South 484 557 45,000  Level Jacksonville Center
04:43PM 30.7558 -81.0047 172° South 484 557 45,000  Level Jacksonville Center
04:44PM 30.6258 -80.9831 172° South 484 557 45,000  Level Jacksonville Center
04:45PM 30.4919 -80.9617 172° South 484 557 45,000  Level Jacksonville Center
04:46PM 30.3600 -80.9403 172° South 484 557 45,000  Level Jacksonville Center
04:47PM 30.2283 -80.9189 172° South 484 557 45,000  Level Jacksonville Center
04:48PM 30.0964 -80.8975 172° South 484 557 45,000 -840 Level Jacksonville Center
04:50PM 29.7764 -80.8450 172° South 476 548 42,300 -1,200 Descending Miami Center
04:52PM 29.6440 -80.8234 172° South  Level FlightAware Approximate
04:52PM 29.5314 -80.8075 172° South 455 524 39,800  Level Miami Center
04:53PM 29.3942 -80.7928 175° South 474 545 38,600 -1,200 Descending Miami Center
04:54PM 29.2550 -80.7714 172° South 488 562 37,400 -1,200 Descending Miami Center
04:55PM 29.1267 -80.7333 165° South 494 568 36,200 -720 Descending Miami Center
04:56PM 29.0053 -80.6747 157° South 485 558 36,000 -120 Descending Miami Center
04:57PM 28.8836 -80.6183 158° South 479 551 36,000 -840 Level Miami Center
04:58PM 28.7703 -80.5669 158° South 479 551 34,400 -1,980 Descending Miami Center
04:59PM 28.6444 -80.5108 159° South 487 560 32,100 -2,460 Descending Miami Center
05:00PM 28.5083 -80.4497 158° South 487 560 29,500 -2,340 Descending Miami Center
05:01PM 28.3864 -80.3939 158° South 481 554 27,500 -2,040 Descending Miami Center
05:02PM 28.2689 -80.3431 159° South 463 533 25,500 -2,040 Descending Miami Center
05:03PM 28.1678 -80.2928 156° South 446 513 23,500 -2,040 Descending Miami Center
05:04PM 28.0692 -80.2264 149° Southeast 425 489 21,500 -2,040 Descending Miami Center
05:05PM 27.9511 -80.1900 165° South 405 466 19,500 -1,860 Descending Miami Center
05:06PM 27.8428 -80.1797 175° South 398 458 17,800 -1,620 Descending Miami Center
05:07PM 27.7469 -80.1722 176° South 386 444 16,300 -1,500 Descending Miami Center
05:08PM 27.6489 -80.1647 176° South 368 423 14,900 -1,560 Descending Miami Center
05:09PM 27.5406 -80.1544 175° South 362 417 13,200 -1,560 Descending Miami Center
05:10PM 27.4467 -80.1494 177° South 351 404 11,800 -1,380 Descending Miami Center
05:11PM 27.3614 -80.1400 174° South 326 375 10,500 -900 Descending Miami Center
05:12PM 27.2842 -80.1356 177° South 307 353 10,000 -600 Descending Miami Center
05:13PM 27.1925 -80.1283 176° South 318 366 9,400 -1,080 Descending Miami Center
05:14PM 27.1050 -80.1211 176° South 300 345 7,900 -1,560 Descending Miami Center
05:15PM 27.0300 -80.1144 175° South 281 323 6,300 -960 Descending Miami Center
05:16PM 26.9547 -80.1100 177° South 271 312 6,000 -180 Descending Miami Center
05:17PM 26.8881 -80.1033 175° South 271 312 6,000  Level Miami Center
05:18PM 26.8069 -80.0964 176° South 271 312 6,000  Level Miami Center
05:19PM 26.7381 -80.0922 177° South 276 318 6,000 -600 Level Miami Center
05:21PM 26.6081 -80.1167 180° South  Level FlightAware Approximate
05:23PM 26.5150 -80.1606 180° South 243 280 3,600  Level Miami Center
05:24PM 26.4706 -80.1939 214° Southwest 237 273 2,700 -840 Descending Miami Center
05:25PM 26.4117 -80.2133 196° South 215 247 2,100 -540 Descending Miami Center
05:26PM 26.3642 -80.1842 151° Southeast 176 203 1,600 -660 Descending Miami Center
05:27PM 26.3503 -80.1489 114° Southeast 127 146 800 -840 Descending Miami Center
05:28PM 26.3785 -80.1077 180° South  Level Estimated
05:29PM 26.3667 -80.1000 180° South  Level FlightAware Approximate
05:36PM 26.3785 -80.1077 180° South  Level Estimated